sensor_id;sensor_type;location;lat;lon;timestamp;P1;durP1;ratioP1;P2;durP2;ratioP2
20245;SDS011;10281;54.406;18.556;2023-01-19T00:01:21;13.73;;;8.70;;
20245;SDS011;10281;54.406;18.556;2023-01-19T00:03:48;12.63;;;9.23;;
20245;SDS011;10281;54.406;18.556;2023-01-19T00:06:15;15.17;;;9.83;;
20245;SDS011;10281;54.406;18.556;2023-01-19T00:08:42;17.23;;;9.43;;
20245;SDS011;10281;54.406;18.556;2023-01-19T00:11:11;13.50;;;9.00;;
20245;SDS011;10281;54.406;18.556;2023-01-19T00:13:38;16.27;;;9.33;;
20245;SDS011;10281;54.406;18.556;2023-01-19T00:16:05;16.77;;;9.67;;
20245;SDS011;10281;54.406;18.556;2023-01-19T00:18:32;14.03;;;9.37;;
20245;SDS011;10281;54.406;18.556;2023-01-19T00:20:59;13.27;;;9.43;;
20245;SDS011;10281;54.406;18.556;2023-01-19T00:23:25;16.60;;;10.03;;
20245;SDS011;10281;54.406;18.556;2023-01-19T00:25:52;16.37;;;9.23;;
20245;SDS011;10281;54.406;18.556;2023-01-19T00:28:18;14.93;;;9.50;;
20245;SDS011;10281;54.406;18.556;2023-01-19T00:30:45;16.33;;;9.33;;
20245;SDS011;10281;54.406;18.556;2023-01-19T00:33:12;17.50;;;9.87;;
20245;SDS011;10281;54.406;18.556;2023-01-19T00:35:39;15.60;;;9.40;;
20245;SDS011;10281;54.406;18.556;2023-01-19T00:38:07;16.30;;;10.23;;
20245;SDS011;10281;54.406;18.556;2023-01-19T00:40:35;17.03;;;10.27;;
20245;SDS011;10281;54.406;18.556;2023-01-19T00:43:02;17.53;;;10.33;;
20245;SDS011;10281;54.406;18.556;2023-01-19T00:45:29;16.93;;;9.97;;
20245;SDS011;10281;54.406;18.556;2023-01-19T00:47:56;20.33;;;10.30;;
20245;SDS011;10281;54.406;18.556;2023-01-19T00:50:24;16.03;;;9.93;;
20245;SDS011;10281;54.406;18.556;2023-01-19T00:52:52;14.70;;;10.23;;
20245;SDS011;10281;54.406;18.556;2023-01-19T00:55:20;18.57;;;10.77;;
20245;SDS011;10281;54.406;18.556;2023-01-19T00:57:48;18.23;;;11.03;;
20245;SDS011;10281;54.406;18.556;2023-01-19T01:02:44;17.53;;;11.23;;
20245;SDS011;10281;54.406;18.556;2023-01-19T01:05:12;18.80;;;11.87;;
20245;SDS011;10281;54.406;18.556;2023-01-19T01:07:39;19.50;;;11.17;;
20245;SDS011;10281;54.406;18.556;2023-01-19T01:10:07;19.60;;;11.20;;
20245;SDS011;10281;54.406;18.556;2023-01-19T01:12:40;18.80;;;11.93;;
20245;SDS011;10281;54.406;18.556;2023-01-19T01:15:08;18.90;;;11.30;;
20245;SDS011;10281;54.406;18.556;2023-01-19T01:17:36;21.37;;;12.30;;
20245;SDS011;10281;54.406;18.556;2023-01-19T01:20:05;22.63;;;12.20;;
20245;SDS011;10281;54.406;18.556;2023-01-19T01:22:33;19.97;;;11.70;;
20245;SDS011;10281;54.406;18.556;2023-01-19T01:24:59;19.83;;;12.00;;
20245;SDS011;10281;54.406;18.556;2023-01-19T01:27:26;18.83;;;12.07;;
20245;SDS011;10281;54.406;18.556;2023-01-19T01:29:53;18.30;;;11.37;;
20245;SDS011;10281;54.406;18.556;2023-01-19T01:32:19;18.67;;;12.57;;
20245;SDS011;10281;54.406;18.556;2023-01-19T01:34:46;19.10;;;12.10;;
20245;SDS011;10281;54.406;18.556;2023-01-19T01:37:12;18.13;;;11.53;;
20245;SDS011;10281;54.406;18.556;2023-01-19T01:39:39;21.40;;;13.13;;
20245;SDS011;10281;54.406;18.556;2023-01-19T01:42:13;19.77;;;13.10;;
20245;SDS011;10281;54.406;18.556;2023-01-19T01:44:44;18.90;;;12.07;;
20245;SDS011;10281;54.406;18.556;2023-01-19T01:47:31;22.90;;;13.17;;
20245;SDS011;10281;54.406;18.556;2023-01-19T01:50:08;20.97;;;12.70;;
20245;SDS011;10281;54.406;18.556;2023-01-19T01:52:42;21.47;;;11.87;;
20245;SDS011;10281;54.406;18.556;2023-01-19T01:55:11;19.73;;;12.53;;
20245;SDS011;10281;54.406;18.556;2023-01-19T01:57:40;19.80;;;13.30;;
20245;SDS011;10281;54.406;18.556;2023-01-19T02:00:10;20.07;;;11.97;;
20245;SDS011;10281;54.406;18.556;2023-01-19T02:02:38;23.93;;;13.20;;
20245;SDS011;10281;54.406;18.556;2023-01-19T02:05:12;19.97;;;11.73;;
20245;SDS011;10281;54.406;18.556;2023-01-19T02:07:49;20.47;;;11.57;;
20245;SDS011;10281;54.406;18.556;2023-01-19T02:10:25;22.73;;;12.33;;
20245;SDS011;10281;54.406;18.556;2023-01-19T02:12:57;26.43;;;13.00;;
20245;SDS011;10281;54.406;18.556;2023-01-19T02:15:30;17.87;;;11.33;;
20245;SDS011;10281;54.406;18.556;2023-01-19T02:17:56;20.00;;;10.80;;
20245;SDS011;10281;54.406;18.556;2023-01-19T02:20:23;20.57;;;12.10;;
20245;SDS011;10281;54.406;18.556;2023-01-19T02:22:53;18.50;;;11.40;;
20245;SDS011;10281;54.406;18.556;2023-01-19T02:25:23;17.67;;;11.30;;
20245;SDS011;10281;54.406;18.556;2023-01-19T02:27:50;19.03;;;11.07;;
20245;SDS011;10281;54.406;18.556;2023-01-19T02:30:17;15.53;;;10.03;;
20245;SDS011;10281;54.406;18.556;2023-01-19T02:32:45;16.63;;;11.07;;
20245;SDS011;10281;54.406;18.556;2023-01-19T02:35:11;17.57;;;10.93;;
20245;SDS011;10281;54.406;18.556;2023-01-19T02:37:39;17.97;;;10.10;;
20245;SDS011;10281;54.406;18.556;2023-01-19T02:40:09;18.07;;;11.03;;
20245;SDS011;10281;54.406;18.556;2023-01-19T02:42:38;16.83;;;10.30;;
20245;SDS011;10281;54.406;18.556;2023-01-19T02:45:12;17.90;;;10.03;;
20245;SDS011;10281;54.406;18.556;2023-01-19T02:47:43;16.60;;;9.87;;
20245;SDS011;10281;54.406;18.556;2023-01-19T02:52:49;16.37;;;9.50;;
20245;SDS011;10281;54.406;18.556;2023-01-19T02:55:20;17.83;;;9.10;;
20245;SDS011;10281;54.406;18.556;2023-01-19T02:57:51;14.80;;;9.00;;
20245;SDS011;10281;54.406;18.556;2023-01-19T03:00:40;17.47;;;9.37;;
20245;SDS011;10281;54.406;18.556;2023-01-19T03:03:18;13.93;;;8.87;;
20245;SDS011;10281;54.406;18.556;2023-01-19T03:06:05;11.93;;;8.40;;
20245;SDS011;10281;54.406;18.556;2023-01-19T03:09:10;16.17;;;8.50;;
20245;SDS011;10281;54.406;18.556;2023-01-19T03:11:22;15.30;;;8.37;;
20245;SDS011;10281;54.406;18.556;2023-01-19T03:13:54;14.70;;;8.67;;
20245;SDS011;10281;54.406;18.556;2023-01-19T03:16:29;14.33;;;8.40;;
20245;SDS011;10281;54.406;18.556;2023-01-19T03:19:04;13.53;;;7.83;;
20245;SDS011;10281;54.406;18.556;2023-01-19T03:21:36;12.43;;;8.03;;
20245;SDS011;10281;54.406;18.556;2023-01-19T03:24:05;12.80;;;8.10;;
20245;SDS011;10281;54.406;18.556;2023-01-19T03:26:35;11.57;;;8.10;;
20245;SDS011;10281;54.406;18.556;2023-01-19T03:29:03;13.57;;;8.03;;
20245;SDS011;10281;54.406;18.556;2023-01-19T03:31:32;14.30;;;8.40;;
20245;SDS011;10281;54.406;18.556;2023-01-19T03:34:01;12.87;;;7.50;;
20245;SDS011;10281;54.406;18.556;2023-01-19T03:36:32;11.10;;;7.70;;
20245;SDS011;10281;54.406;18.556;2023-01-19T03:39:02;11.77;;;7.67;;
20245;SDS011;10281;54.406;18.556;2023-01-19T03:41:32;11.23;;;7.20;;
20245;SDS011;10281;54.406;18.556;2023-01-19T03:44:00;13.90;;;7.73;;
20245;SDS011;10281;54.406;18.556;2023-01-19T03:46:27;12.57;;;7.67;;
20245;SDS011;10281;54.406;18.556;2023-01-19T03:48:56;11.83;;;7.80;;
20245;SDS011;10281;54.406;18.556;2023-01-19T03:51:24;11.60;;;7.20;;
20245;SDS011;10281;54.406;18.556;2023-01-19T03:53:51;15.27;;;7.50;;
20245;SDS011;10281;54.406;18.556;2023-01-19T03:56:19;9.43;;;6.03;;
20245;SDS011;10281;54.406;18.556;2023-01-19T03:58:47;10.60;;;7.07;;
20245;SDS011;10281;54.406;18.556;2023-01-19T04:01:15;10.40;;;6.80;;
20245;SDS011;10281;54.406;18.556;2023-01-19T04:03:45;11.47;;;7.23;;
20245;SDS011;10281;54.406;18.556;2023-01-19T04:06:11;11.67;;;7.10;;
20245;SDS011;10281;54.406;18.556;2023-01-19T04:08:38;11.33;;;7.33;;
20245;SDS011;10281;54.406;18.556;2023-01-19T04:11:05;11.00;;;6.77;;
20245;SDS011;10281;54.406;18.556;2023-01-19T04:13:33;13.23;;;7.07;;
20245;SDS011;10281;54.406;18.556;2023-01-19T04:16:00;12.10;;;7.20;;
20245;SDS011;10281;54.406;18.556;2023-01-19T04:18:28;13.20;;;7.60;;
20245;SDS011;10281;54.406;18.556;2023-01-19T04:20:59;12.17;;;7.20;;
20245;SDS011;10281;54.406;18.556;2023-01-19T04:23:27;12.60;;;6.80;;
20245;SDS011;10281;54.406;18.556;2023-01-19T04:25:57;12.73;;;8.07;;
20245;SDS011;10281;54.406;18.556;2023-01-19T04:28:24;11.53;;;7.53;;
20245;SDS011;10281;54.406;18.556;2023-01-19T04:30:51;11.23;;;7.13;;
20245;SDS011;10281;54.406;18.556;2023-01-19T04:33:18;9.40;;;6.40;;
20245;SDS011;10281;54.406;18.556;2023-01-19T04:35:46;10.70;;;7.03;;
20245;SDS011;10281;54.406;18.556;2023-01-19T04:38:14;10.83;;;6.80;;
20245;SDS011;10281;54.406;18.556;2023-01-19T04:40:41;10.93;;;6.77;;
20245;SDS011;10281;54.406;18.556;2023-01-19T04:43:08;13.13;;;7.03;;
20245;SDS011;10281;54.406;18.556;2023-01-19T04:45:34;12.53;;;6.70;;
20245;SDS011;10281;54.406;18.556;2023-01-19T04:48:01;10.77;;;6.73;;
20245;SDS011;10281;54.406;18.556;2023-01-19T04:50:30;11.23;;;7.10;;
20245;SDS011;10281;54.406;18.556;2023-01-19T04:52:57;12.57;;;6.57;;
20245;SDS011;10281;54.406;18.556;2023-01-19T04:55:25;11.73;;;6.20;;
20245;SDS011;10281;54.406;18.556;2023-01-19T04:57:51;10.00;;;6.37;;
20245;SDS011;10281;54.406;18.556;2023-01-19T05:00:18;10.27;;;6.60;;
20245;SDS011;10281;54.406;18.556;2023-01-19T05:02:45;10.43;;;6.50;;
20245;SDS011;10281;54.406;18.556;2023-01-19T05:05:12;9.70;;;6.57;;
20245;SDS011;10281;54.406;18.556;2023-01-19T05:07:39;9.87;;;6.53;;
20245;SDS011;10281;54.406;18.556;2023-01-19T05:10:06;9.57;;;6.17;;
20245;SDS011;10281;54.406;18.556;2023-01-19T05:12:33;9.37;;;6.60;;
20245;SDS011;10281;54.406;18.556;2023-01-19T05:15:00;11.70;;;6.60;;
20245;SDS011;10281;54.406;18.556;2023-01-19T05:17:27;10.67;;;6.50;;
20245;SDS011;10281;54.406;18.556;2023-01-19T05:19:54;11.93;;;6.70;;
20245;SDS011;10281;54.406;18.556;2023-01-19T05:22:21;11.10;;;6.23;;
20245;SDS011;10281;54.406;18.556;2023-01-19T05:24:48;11.47;;;6.47;;
20245;SDS011;10281;54.406;18.556;2023-01-19T05:27:14;12.07;;;6.60;;
20245;SDS011;10281;54.406;18.556;2023-01-19T05:29:41;12.33;;;7.03;;
20245;SDS011;10281;54.406;18.556;2023-01-19T05:32:07;11.97;;;6.50;;
20245;SDS011;10281;54.406;18.556;2023-01-19T05:34:34;9.43;;;5.90;;
20245;SDS011;10281;54.406;18.556;2023-01-19T05:37:01;11.00;;;6.30;;
20245;SDS011;10281;54.406;18.556;2023-01-19T05:39:28;11.60;;;6.70;;
20245;SDS011;10281;54.406;18.556;2023-01-19T05:41:55;9.53;;;5.73;;
20245;SDS011;10281;54.406;18.556;2023-01-19T05:44:21;8.73;;;5.97;;
20245;SDS011;10281;54.406;18.556;2023-01-19T05:46:48;9.80;;;6.10;;
20245;SDS011;10281;54.406;18.556;2023-01-19T05:49:14;10.10;;;6.17;;
20245;SDS011;10281;54.406;18.556;2023-01-19T05:51:41;9.90;;;6.30;;
20245;SDS011;10281;54.406;18.556;2023-01-19T05:54:11;9.87;;;6.03;;
20245;SDS011;10281;54.406;18.556;2023-01-19T05:56:39;9.97;;;6.40;;
20245;SDS011;10281;54.406;18.556;2023-01-19T05:59:06;9.80;;;6.43;;
20245;SDS011;10281;54.406;18.556;2023-01-19T06:01:33;11.53;;;6.53;;
20245;SDS011;10281;54.406;18.556;2023-01-19T06:04:01;14.13;;;8.20;;
20245;SDS011;10281;54.406;18.556;2023-01-19T06:06:28;16.20;;;10.33;;
20245;SDS011;10281;54.406;18.556;2023-01-19T06:08:55;23.00;;;11.60;;
20245;SDS011;10281;54.406;18.556;2023-01-19T06:11:21;25.93;;;12.30;;
20245;SDS011;10281;54.406;18.556;2023-01-19T06:13:48;28.03;;;12.33;;
20245;SDS011;10281;54.406;18.556;2023-01-19T06:16:15;24.97;;;12.27;;
20245;SDS011;10281;54.406;18.556;2023-01-19T06:18:42;20.67;;;11.50;;
20245;SDS011;10281;54.406;18.556;2023-01-19T06:21:09;23.47;;;11.67;;
20245;SDS011;10281;54.406;18.556;2023-01-19T06:23:37;31.10;;;13.27;;
20245;SDS011;10281;54.406;18.556;2023-01-19T06:26:03;45.80;;;19.00;;
20245;SDS011;10281;54.406;18.556;2023-01-19T06:28:31;55.03;;;23.37;;
20245;SDS011;10281;54.406;18.556;2023-01-19T06:30:57;55.60;;;22.83;;
20245;SDS011;10281;54.406;18.556;2023-01-19T06:33:24;40.20;;;18.50;;
20245;SDS011;10281;54.406;18.556;2023-01-19T06:35:52;39.50;;;17.47;;
20245;SDS011;10281;54.406;18.556;2023-01-19T06:38:19;40.60;;;18.23;;
20245;SDS011;10281;54.406;18.556;2023-01-19T06:40:51;41.53;;;19.20;;
20245;SDS011;10281;54.406;18.556;2023-01-19T06:43:20;42.87;;;21.67;;
20245;SDS011;10281;54.406;18.556;2023-01-19T06:45:47;37.33;;;20.57;;
20245;SDS011;10281;54.406;18.556;2023-01-19T06:48:14;37.90;;;18.50;;
20245;SDS011;10281;54.406;18.556;2023-01-19T06:50:43;27.63;;;14.80;;
20245;SDS011;10281;54.406;18.556;2023-01-19T06:53:11;24.73;;;13.77;;
20245;SDS011;10281;54.406;18.556;2023-01-19T06:55:38;27.30;;;13.77;;
20245;SDS011;10281;54.406;18.556;2023-01-19T06:58:04;21.33;;;13.47;;
20245;SDS011;10281;54.406;18.556;2023-01-19T07:00:32;22.53;;;13.53;;
20245;SDS011;10281;54.406;18.556;2023-01-19T07:02:58;19.80;;;10.60;;
20245;SDS011;10281;54.406;18.556;2023-01-19T07:05:25;17.07;;;10.17;;
20245;SDS011;10281;54.406;18.556;2023-01-19T07:07:55;16.53;;;9.00;;
20245;SDS011;10281;54.406;18.556;2023-01-19T07:10:22;12.63;;;7.90;;
20245;SDS011;10281;54.406;18.556;2023-01-19T07:12:49;13.67;;;8.20;;
20245;SDS011;10281;54.406;18.556;2023-01-19T07:15:17;13.20;;;8.00;;
20245;SDS011;10281;54.406;18.556;2023-01-19T07:17:46;17.00;;;8.57;;
20245;SDS011;10281;54.406;18.556;2023-01-19T07:20:13;16.97;;;10.13;;
20245;SDS011;10281;54.406;18.556;2023-01-19T07:22:41;16.20;;;9.00;;
20245;SDS011;10281;54.406;18.556;2023-01-19T07:25:10;18.87;;;11.70;;
20245;SDS011;10281;54.406;18.556;2023-01-19T07:27:37;19.53;;;11.57;;
20245;SDS011;10281;54.406;18.556;2023-01-19T07:30:05;12.83;;;8.93;;
20245;SDS011;10281;54.406;18.556;2023-01-19T07:32:32;16.30;;;8.77;;
20245;SDS011;10281;54.406;18.556;2023-01-19T07:37:36;11.20;;;7.43;;
20245;SDS011;10281;54.406;18.556;2023-01-19T07:40:03;14.73;;;8.20;;
20245;SDS011;10281;54.406;18.556;2023-01-19T07:42:30;12.20;;;8.37;;
20245;SDS011;10281;54.406;18.556;2023-01-19T07:44:57;14.07;;;7.87;;
20245;SDS011;10281;54.406;18.556;2023-01-19T07:47:23;13.53;;;8.47;;
20245;SDS011;10281;54.406;18.556;2023-01-19T07:49:50;14.60;;;8.73;;
20245;SDS011;10281;54.406;18.556;2023-01-19T07:52:17;15.13;;;8.77;;
20245;SDS011;10281;54.406;18.556;2023-01-19T07:54:44;13.27;;;8.37;;
20245;SDS011;10281;54.406;18.556;2023-01-19T07:57:10;12.53;;;8.30;;
20245;SDS011;10281;54.406;18.556;2023-01-19T07:59:37;14.13;;;8.83;;
20245;SDS011;10281;54.406;18.556;2023-01-19T08:02:04;14.13;;;8.07;;
20245;SDS011;10281;54.406;18.556;2023-01-19T08:04:32;12.40;;;8.27;;
20245;SDS011;10281;54.406;18.556;2023-01-19T08:06:58;14.60;;;8.70;;
20245;SDS011;10281;54.406;18.556;2023-01-19T08:09:25;15.30;;;9.23;;
20245;SDS011;10281;54.406;18.556;2023-01-19T08:11:52;18.90;;;9.57;;
20245;SDS011;10281;54.406;18.556;2023-01-19T08:14:18;16.30;;;9.67;;
20245;SDS011;10281;54.406;18.556;2023-01-19T08:16:45;18.50;;;11.33;;
20245;SDS011;10281;54.406;18.556;2023-01-19T08:19:12;16.17;;;9.97;;
20245;SDS011;10281;54.406;18.556;2023-01-19T08:21:38;16.57;;;9.47;;
20245;SDS011;10281;54.406;18.556;2023-01-19T08:24:05;13.77;;;8.70;;
20245;SDS011;10281;54.406;18.556;2023-01-19T08:26:35;16.43;;;9.40;;
20245;SDS011;10281;54.406;18.556;2023-01-19T08:29:02;15.43;;;8.97;;
20245;SDS011;10281;54.406;18.556;2023-01-19T08:31:31;18.83;;;9.93;;
20245;SDS011;10281;54.406;18.556;2023-01-19T08:33:57;15.27;;;9.80;;
20245;SDS011;10281;54.406;18.556;2023-01-19T08:36:24;15.23;;;9.47;;
20245;SDS011;10281;54.406;18.556;2023-01-19T08:38:51;13.17;;;8.83;;
20245;SDS011;10281;54.406;18.556;2023-01-19T08:41:18;16.00;;;8.80;;
20245;SDS011;10281;54.406;18.556;2023-01-19T08:43:45;15.67;;;9.80;;
20245;SDS011;10281;54.406;18.556;2023-01-19T08:46:12;13.33;;;8.87;;
20245;SDS011;10281;54.406;18.556;2023-01-19T08:48:44;14.70;;;9.50;;
20245;SDS011;10281;54.406;18.556;2023-01-19T08:51:13;15.77;;;8.70;;
20245;SDS011;10281;54.406;18.556;2023-01-19T08:53:41;15.97;;;9.90;;
20245;SDS011;10281;54.406;18.556;2023-01-19T08:56:09;11.97;;;8.43;;
20245;SDS011;10281;54.406;18.556;2023-01-19T08:58:38;17.87;;;10.67;;
20245;SDS011;10281;54.406;18.556;2023-01-19T09:01:06;15.83;;;9.13;;
20245;SDS011;10281;54.406;18.556;2023-01-19T09:03:34;13.63;;;8.27;;
20245;SDS011;10281;54.406;18.556;2023-01-19T09:06:04;13.33;;;8.90;;
20245;SDS011;10281;54.406;18.556;2023-01-19T09:08:32;14.10;;;8.40;;
20245;SDS011;10281;54.406;18.556;2023-01-19T09:10:59;13.50;;;9.00;;
20245;SDS011;10281;54.406;18.556;2023-01-19T09:13:26;13.13;;;8.70;;
20245;SDS011;10281;54.406;18.556;2023-01-19T09:15:52;14.57;;;7.73;;
20245;SDS011;10281;54.406;18.556;2023-01-19T09:18:20;15.63;;;8.00;;
20245;SDS011;10281;54.406;18.556;2023-01-19T09:20:48;13.73;;;8.47;;
20245;SDS011;10281;54.406;18.556;2023-01-19T09:23:17;12.57;;;7.80;;
20245;SDS011;10281;54.406;18.556;2023-01-19T09:25:45;13.73;;;7.87;;
20245;SDS011;10281;54.406;18.556;2023-01-19T09:28:13;13.80;;;8.07;;
20245;SDS011;10281;54.406;18.556;2023-01-19T09:30:42;10.60;;;7.23;;
20245;SDS011;10281;54.406;18.556;2023-01-19T09:33:10;12.60;;;7.63;;
20245;SDS011;10281;54.406;18.556;2023-01-19T09:35:39;11.17;;;7.37;;
20245;SDS011;10281;54.406;18.556;2023-01-19T09:38:07;14.33;;;7.83;;
20245;SDS011;10281;54.406;18.556;2023-01-19T09:40:36;11.47;;;7.27;;
20245;SDS011;10281;54.406;18.556;2023-01-19T09:43:17;11.47;;;6.50;;
20245;SDS011;10281;54.406;18.556;2023-01-19T09:45:55;13.40;;;5.87;;
20245;SDS011;10281;54.406;18.556;2023-01-19T09:48:29;12.00;;;6.33;;
20245;SDS011;10281;54.406;18.556;2023-01-19T09:51:03;10.27;;;5.93;;
20245;SDS011;10281;54.406;18.556;2023-01-19T09:53:38;11.33;;;6.43;;
20245;SDS011;10281;54.406;18.556;2023-01-19T09:56:11;10.50;;;6.20;;
20245;SDS011;10281;54.406;18.556;2023-01-19T09:58:40;10.57;;;6.10;;
20245;SDS011;10281;54.406;18.556;2023-01-19T10:03:46;10.40;;;7.00;;
20245;SDS011;10281;54.406;18.556;2023-01-19T10:06:17;14.83;;;7.30;;
20245;SDS011;10281;54.406;18.556;2023-01-19T10:08:47;14.43;;;6.83;;
20245;SDS011;10281;54.406;18.556;2023-01-19T10:11:27;14.43;;;7.20;;
20245;SDS011;10281;54.406;18.556;2023-01-19T10:13:53;13.73;;;6.93;;
20245;SDS011;10281;54.406;18.556;2023-01-19T10:19:20;12.00;;;6.87;;
20245;SDS011;10281;54.406;18.556;2023-01-19T10:21:49;20.77;;;11.83;;
20245;SDS011;10281;54.406;18.556;2023-01-19T10:24:20;21.53;;;12.07;;
20245;SDS011;10281;54.406;18.556;2023-01-19T10:26:57;12.93;;;8.20;;
20245;SDS011;10281;54.406;18.556;2023-01-19T10:29:27;12.90;;;8.07;;
20245;SDS011;10281;54.406;18.556;2023-01-19T10:32:04;19.13;;;8.90;;
20245;SDS011;10281;54.406;18.556;2023-01-19T10:34:35;14.57;;;8.67;;
20245;SDS011;10281;54.406;18.556;2023-01-19T10:37:04;18.77;;;9.87;;
20245;SDS011;10281;54.406;18.556;2023-01-19T10:39:53;13.83;;;6.83;;
20245;SDS011;10281;54.406;18.556;2023-01-19T10:42:38;12.77;;;7.30;;
20245;SDS011;10281;54.406;18.556;2023-01-19T10:45:16;10.33;;;6.70;;
20245;SDS011;10281;54.406;18.556;2023-01-19T10:47:44;12.23;;;7.03;;
20245;SDS011;10281;54.406;18.556;2023-01-19T10:50:43;12.40;;;9.33;;
20245;SDS011;10281;54.406;18.556;2023-01-19T10:52:59;9.67;;;6.47;;
20245;SDS011;10281;54.406;18.556;2023-01-19T10:55:29;12.57;;;6.60;;
20245;SDS011;10281;54.406;18.556;2023-01-19T10:57:59;13.40;;;8.13;;
20245;SDS011;10281;54.406;18.556;2023-01-19T11:00:34;11.27;;;7.67;;
20245;SDS011;10281;54.406;18.556;2023-01-19T11:03:20;10.60;;;6.20;;
20245;SDS011;10281;54.406;18.556;2023-01-19T11:05:39;8.20;;;5.60;;
20245;SDS011;10281;54.406;18.556;2023-01-19T11:08:20;12.67;;;6.73;;
20245;SDS011;10281;54.406;18.556;2023-01-19T11:10:37;10.77;;;7.47;;
20245;SDS011;10281;54.406;18.556;2023-01-19T11:13:08;12.33;;;5.83;;
20245;SDS011;10281;54.406;18.556;2023-01-19T11:15:41;10.37;;;5.93;;
20245;SDS011;10281;54.406;18.556;2023-01-19T11:18:27;6.87;;;5.43;;
20245;SDS011;10281;54.406;18.556;2023-01-19T11:20:56;5.67;;;3.80;;
20245;SDS011;10281;54.406;18.556;2023-01-19T11:23:27;8.90;;;3.63;;
20245;SDS011;10281;54.406;18.556;2023-01-19T11:25:58;4.67;;;3.40;;
20245;SDS011;10281;54.406;18.556;2023-01-19T11:28:27;5.27;;;3.00;;
20245;SDS011;10281;54.406;18.556;2023-01-19T11:31:02;4.40;;;3.03;;
20245;SDS011;10281;54.406;18.556;2023-01-19T11:33:48;5.43;;;3.27;;
20245;SDS011;10281;54.406;18.556;2023-01-19T11:36:17;4.63;;;3.17;;
20245;SDS011;10281;54.406;18.556;2023-01-19T11:38:48;3.67;;;2.93;;
20245;SDS011;10281;54.406;18.556;2023-01-19T11:41:20;6.00;;;3.07;;
20245;SDS011;10281;54.406;18.556;2023-01-19T11:43:50;5.20;;;3.23;;
20245;SDS011;10281;54.406;18.556;2023-01-19T11:46:20;4.67;;;3.40;;
20245;SDS011;10281;54.406;18.556;2023-01-19T11:48:53;7.20;;;3.13;;
20245;SDS011;10281;54.406;18.556;2023-01-19T11:51:24;7.80;;;3.63;;
20245;SDS011;10281;54.406;18.556;2023-01-19T11:53:55;5.43;;;3.47;;
20245;SDS011;10281;54.406;18.556;2023-01-19T11:56:22;6.67;;;3.13;;
20245;SDS011;10281;54.406;18.556;2023-01-19T11:58:53;6.30;;;3.10;;
20245;SDS011;10281;54.406;18.556;2023-01-19T12:01:21;5.80;;;3.30;;
20245;SDS011;10281;54.406;18.556;2023-01-19T12:04:09;6.33;;;3.30;;
20245;SDS011;10281;54.406;18.556;2023-01-19T12:06:38;5.03;;;3.40;;
20245;SDS011;10281;54.406;18.556;2023-01-19T12:09:17;3.97;;;3.30;;
20245;SDS011;10281;54.406;18.556;2023-01-19T12:11:47;6.03;;;3.20;;
20245;SDS011;10281;54.406;18.556;2023-01-19T12:14:22;6.20;;;3.60;;
20245;SDS011;10281;54.406;18.556;2023-01-19T12:16:52;4.77;;;3.57;;
20245;SDS011;10281;54.406;18.556;2023-01-19T12:19:23;4.70;;;3.20;;
20245;SDS011;10281;54.406;18.556;2023-01-19T12:21:52;5.60;;;3.50;;
20245;SDS011;10281;54.406;18.556;2023-01-19T12:24:22;7.50;;;3.80;;
20245;SDS011;10281;54.406;18.556;2023-01-19T12:26:52;6.30;;;3.60;;
20245;SDS011;10281;54.406;18.556;2023-01-19T12:29:23;5.13;;;3.63;;
20245;SDS011;10281;54.406;18.556;2023-01-19T12:34:47;8.33;;;4.33;;
20245;SDS011;10281;54.406;18.556;2023-01-19T12:39:56;8.50;;;3.93;;
20245;SDS011;10281;54.406;18.556;2023-01-19T12:42:25;6.53;;;3.87;;
20245;SDS011;10281;54.406;18.556;2023-01-19T12:47:31;6.40;;;4.07;;
20245;SDS011;10281;54.406;18.556;2023-01-19T12:50:03;6.07;;;3.97;;
20245;SDS011;10281;54.406;18.556;2023-01-19T12:52:39;6.00;;;3.37;;
20245;SDS011;10281;54.406;18.556;2023-01-19T12:55:16;7.50;;;4.00;;
20245;SDS011;10281;54.406;18.556;2023-01-19T12:57:52;6.60;;;3.97;;
20245;SDS011;10281;54.406;18.556;2023-01-19T13:00:30;6.73;;;3.63;;
20245;SDS011;10281;54.406;18.556;2023-01-19T13:03:00;8.70;;;4.60;;
20245;SDS011;10281;54.406;18.556;2023-01-19T13:05:47;7.13;;;4.10;;
20245;SDS011;10281;54.406;18.556;2023-01-19T13:08:17;8.30;;;4.50;;
20245;SDS011;10281;54.406;18.556;2023-01-19T13:13:22;8.20;;;4.77;;
20245;SDS011;10281;54.406;18.556;2023-01-19T13:15:52;7.50;;;5.17;;
20245;SDS011;10281;54.406;18.556;2023-01-19T13:18:24;9.33;;;5.03;;
20245;SDS011;10281;54.406;18.556;2023-01-19T13:20:57;8.67;;;5.50;;
20245;SDS011;10281;54.406;18.556;2023-01-19T13:23:27;9.07;;;5.60;;
20245;SDS011;10281;54.406;18.556;2023-01-19T13:26:00;10.70;;;6.23;;
20245;SDS011;10281;54.406;18.556;2023-01-19T13:28:31;9.93;;;5.23;;
20245;SDS011;10281;54.406;18.556;2023-01-19T13:31:00;12.70;;;5.73;;
20245;SDS011;10281;54.406;18.556;2023-01-19T13:33:32;8.90;;;5.63;;
20245;SDS011;10281;54.406;18.556;2023-01-19T13:36:01;10.97;;;5.40;;
20245;SDS011;10281;54.406;18.556;2023-01-19T13:38:28;9.50;;;6.00;;
20245;SDS011;10281;54.406;18.556;2023-01-19T13:40:57;9.73;;;6.00;;
20245;SDS011;10281;54.406;18.556;2023-01-19T13:43:27;12.77;;;5.83;;
20245;SDS011;10281;54.406;18.556;2023-01-19T13:45:57;10.03;;;6.23;;
20245;SDS011;10281;54.406;18.556;2023-01-19T13:48:26;9.60;;;6.47;;
20245;SDS011;10281;54.406;18.556;2023-01-19T13:50:55;9.90;;;5.70;;
20245;SDS011;10281;54.406;18.556;2023-01-19T13:53:27;10.07;;;6.20;;
20245;SDS011;10281;54.406;18.556;2023-01-19T13:58:32;9.73;;;6.17;;
20245;SDS011;10281;54.406;18.556;2023-01-19T14:00:58;9.73;;;5.90;;
20245;SDS011;10281;54.406;18.556;2023-01-19T14:03:25;10.03;;;6.07;;
20245;SDS011;10281;54.406;18.556;2023-01-19T14:05:52;9.83;;;5.70;;
20245;SDS011;10281;54.406;18.556;2023-01-19T14:08:20;10.93;;;5.90;;
20245;SDS011;10281;54.406;18.556;2023-01-19T14:13:32;13.60;;;6.00;;
20245;SDS011;10281;54.406;18.556;2023-01-19T14:16:04;9.37;;;5.97;;
20245;SDS011;10281;54.406;18.556;2023-01-19T14:18:33;8.67;;;5.40;;
20245;SDS011;10281;54.406;18.556;2023-01-19T14:21:03;7.23;;;5.33;;
20245;SDS011;10281;54.406;18.556;2023-01-19T14:23:37;9.50;;;5.70;;
20245;SDS011;10281;54.406;18.556;2023-01-19T14:29:13;10.80;;;6.30;;
20245;SDS011;10281;54.406;18.556;2023-01-19T14:31:43;8.77;;;5.37;;
20245;SDS011;10281;54.406;18.556;2023-01-19T14:36:49;10.33;;;6.07;;
20245;SDS011;10281;54.406;18.556;2023-01-19T14:39:18;9.83;;;6.27;;
20245;SDS011;10281;54.406;18.556;2023-01-19T14:41:48;9.60;;;5.70;;
20245;SDS011;10281;54.406;18.556;2023-01-19T14:44:20;8.50;;;5.50;;
20245;SDS011;10281;54.406;18.556;2023-01-19T14:46:53;8.93;;;5.40;;
20245;SDS011;10281;54.406;18.556;2023-01-19T14:49:31;10.47;;;5.67;;
20245;SDS011;10281;54.406;18.556;2023-01-19T14:51:57;9.97;;;5.40;;
20245;SDS011;10281;54.406;18.556;2023-01-19T14:54:28;8.57;;;5.33;;
20245;SDS011;10281;54.406;18.556;2023-01-19T14:56:58;7.93;;;5.43;;
20245;SDS011;10281;54.406;18.556;2023-01-19T14:59:24;10.63;;;5.70;;
20245;SDS011;10281;54.406;18.556;2023-01-19T15:01:51;7.73;;;4.97;;
20245;SDS011;10281;54.406;18.556;2023-01-19T15:04:18;8.60;;;5.67;;
20245;SDS011;10281;54.406;18.556;2023-01-19T15:06:44;8.60;;;5.00;;
20245;SDS011;10281;54.406;18.556;2023-01-19T15:09:12;9.53;;;5.20;;